Time;durP1;ratioP1;P1;durP2;ratioP2;P2;SDS_P1;SDS_P2;PMS_P1;PMS_P2;Temp;Humidity;BMP_temperature;BMP_pressure;BME280_temperature;BME280_humidity;BME280_pressure;Samples;Min_cycle;Max_cycle;Signal;HPM_P1;HPM_P2
2022/05/14 00:00:58;;;;;;;4.82;3.05;;;11.60;99.90;;;;;;4670887;28;10000116;-69
2022/05/14 00:03:25;;;;;;;5.20;2.40;;;11.60;99.90;;;;;;5020940;28;20037;-70
2022/05/14 00:05:53;;;;;;;4.32;2.58;;;11.60;99.90;;;;;;5024752;28;20025;-70
2022/05/14 00:08:19;;;;;;;5.50;2.67;;;11.60;99.90;;;;;;5018961;28;20025;-69
2022/05/14 00:13:29;;;;;;;5.18;2.80;;;11.50;99.90;;;;;;5027363;28;20041;-70
2022/05/14 00:15:55;;;;;;;3.70;2.40;;;11.50;99.90;;;;;;5029623;28;20025;-70
2022/05/14 00:18:23;;;;;;;4.18;2.50;;;11.50;99.90;;;;;;5021943;28;20502;-69
2022/05/14 00:20:51;;;;;;;5.20;3.00;;;11.50;99.90;;;;;;5025145;28;20022;-69
2022/05/14 00:23:17;;;;;;;4.38;2.80;;;11.50;99.90;;;;;;5026686;28;20133;-70
2022/05/14 00:25:44;;;;;;;4.65;2.55;;;11.40;99.90;;;;;;5020582;28;20045;-70
2022/05/14 00:28:10;;;;;;;5.20;3.20;;;11.40;99.90;;;;;;5025614;28;20033;-70
2022/05/14 00:30:37;;;;;;;6.60;3.10;;;11.40;99.90;;;;;;5023629;28;20014;-69
2022/05/14 00:33:03;;;;;;;4.93;2.92;;;11.40;99.90;;;;;;5027649;28;20033;-70
2022/05/14 00:35:29;;;;;;;8.90;3.05;;;11.30;99.90;;;;;;5029903;28;20009;-69
2022/05/14 00:37:55;;;;;;;7.50;3.00;;;11.30;99.90;;;;;;5025095;28;20401;-69
2022/05/14 00:40:30;;;;;;;4.80;3.22;;;11.30;99.90;;;;;;5019086;28;20013;-69
2022/05/14 00:42:56;;;;;;;5.60;3.03;;;11.20;99.90;;;;;;5020689;28;20493;-70
2022/05/14 00:45:22;;;;;;;6.50;2.85;;;11.20;99.90;;;;;;5027817;28;20013;-68
2022/05/14 00:47:53;;;;;;;4.47;2.63;;;11.20;99.90;;;;;;5027389;28;20373;-69
2022/05/14 00:50:39;;;;;;;3.65;2.67;;;11.20;99.90;;;;;;5015653;28;20055;-70
2022/05/14 00:53:18;;;;;;;4.22;2.50;;;11.20;99.90;;;;;;5024499;28;20028;-69
2022/05/14 00:55:48;;;;;;;3.65;2.60;;;11.20;99.90;;;;;;5025018;28;20021;-69
2022/05/14 00:58:37;;;;;;;5.18;2.60;;;11.10;99.90;;;;;;5022968;28;20489;-69
2022/05/14 01:01:03;;;;;;;3.78;2.30;;;11.10;99.90;;;;;;5024520;28;20026;-69
2022/05/14 01:03:28;;;;;;;6.03;2.83;;;11.10;99.90;;;;;;5027068;28;20095;-70
2022/05/14 01:05:56;;;;;;;3.60;2.70;;;11.00;99.90;;;;;;5024944;28;20479;-69
2022/05/14 01:08:22;;;;;;;4.75;2.50;;;11.00;99.90;;;;;;5024846;28;20034;-70
2022/05/14 01:10:47;;;;;;;4.88;2.55;;;11.00;99.90;;;;;;5024697;28;20084;-70
2022/05/14 01:13:14;;;;;;;3.65;2.78;;;11.00;99.90;;;;;;5026439;28;20112;-70
2022/05/14 01:15:54;;;;;;;5.05;2.85;;;10.90;99.90;;;;;;5027067;28;20080;-70
2022/05/14 01:18:22;;;;;;;4.15;2.92;;;10.90;99.90;;;;;;5023358;28;20029;-70
2022/05/14 01:20:55;;;;;;;3.00;2.20;;;10.90;99.90;;;;;;5029227;28;20025;-70
2022/05/14 01:26:28;;;;;;;4.88;3.03;;;10.80;99.90;;;;;;5024608;28;20052;-70
2022/05/14 01:29:06;;;;;;;7.40;3.15;;;10.70;99.90;;;;;;5023299;28;20401;-70
2022/05/14 01:31:32;;;;;;;6.22;3.38;;;10.70;99.90;;;;;;5011572;28;20781;-69
2022/05/14 01:34:01;;;;;;;7.70;4.13;;;10.60;99.90;;;;;;5016291;28;20041;-69
2022/05/14 01:36:27;;;;;;;5.60;3.33;;;10.60;99.90;;;;;;5022373;28;20025;-69
2022/05/14 01:38:56;;;;;;;7.05;3.53;;;10.50;99.90;;;;;;5023129;28;20037;-69
2022/05/14 01:41:22;;;;;;;7.22;3.08;;;10.50;99.90;;;;;;5017272;28;20029;-70
2022/05/14 01:43:48;;;;;;;5.75;3.22;;;10.50;99.90;;;;;;5017253;28;20112;-69
2022/05/14 01:46:14;;;;;;;5.50;3.47;;;10.50;99.90;;;;;;5019317;28;20071;-70
2022/05/14 01:48:40;;;;;;;7.47;3.50;;;10.50;99.90;;;;;;5015630;28;20112;-69
2022/05/14 01:51:06;;;;;;;10.93;3.50;;;10.40;99.90;;;;;;5022172;28;21079;-69
2022/05/14 01:53:32;;;;;;;8.13;3.33;;;10.40;99.90;;;;;;5024202;28;20101;-69
2022/05/14 01:55:57;;;;;;;6.35;3.00;;;10.50;99.90;;;;;;5028073;28;20426;-70
2022/05/14 01:58:38;;;;;;;4.05;3.20;;;10.40;99.90;;;;;;5021280;28;20025;-69
2022/05/14 02:01:22;;;;;;;5.32;3.20;;;10.40;99.90;;;;;;5023186;28;20029;-69
2022/05/14 02:03:54;;;;;;;4.97;3.20;;;10.40;99.90;;;;;;5026350;28;20155;-69
2022/05/14 02:06:21;;;;;;;7.47;3.75;;;10.40;99.90;;;;;;5025146;28;20072;-69
2022/05/14 02:08:47;;;;;;;5.38;3.28;;;10.30;99.90;;;;;;5022520;28;20053;-69
2022/05/14 02:11:13;;;;;;;6.13;3.63;;;10.30;99.90;;;;;;5026611;28;20026;-69
2022/05/14 02:13:40;;;;;;;7.03;3.60;;;10.30;99.90;;;;;;5018085;28;20017;-69
2022/05/14 02:16:06;;;;;;;6.38;3.42;;;10.30;99.90;;;;;;5020250;28;20029;-69
2022/05/14 02:18:32;;;;;;;5.72;3.50;;;10.30;99.90;;;;;;5022220;28;20099;-69
2022/05/14 02:20:58;;;;;;;5.90;3.45;;;10.30;99.90;;;;;;5025439;28;20068;-69
2022/05/14 02:23:24;;;;;;;7.20;3.60;;;10.20;99.90;;;;;;5018906;28;20053;-69
2022/05/14 02:25:50;;;;;;;6.65;3.95;;;10.20;99.90;;;;;;5024813;28;20166;-69
2022/05/14 02:28:16;;;;;;;6.80;4.25;;;10.20;99.90;;;;;;5020585;28;20231;-69
2022/05/14 02:30:42;;;;;;;6.05;3.40;;;10.20;99.90;;;;;;5026948;28;20025;-69
2022/05/14 02:33:08;;;;;;;6.72;3.65;;;10.10;99.90;;;;;;5025314;28;20540;-70
2022/05/14 02:35:34;;;;;;;6.32;3.67;;;10.10;99.90;;;;;;5028241;28;20029;-69
2022/05/14 02:38:01;;;;;;;6.65;3.67;;;10.10;99.90;;;;;;5023546;28;20370;-69
2022/05/14 02:40:27;;;;;;;4.82;3.40;;;10.10;99.90;;;;;;5015247;28;20033;-70
2022/05/14 02:42:52;;;;;;;6.70;4.15;;;10.10;99.90;;;;;;5025064;28;20393;-69
2022/05/14 02:45:19;;;;;;;7.70;3.60;;;10.10;99.90;;;;;;5024963;28;20026;-70
2022/05/14 02:47:44;;;;;;;6.28;3.70;;;10.10;99.90;;;;;;5024852;28;20549;-70
2022/05/14 02:50:11;;;;;;;5.07;3.67;;;10.00;99.90;;;;;;5024693;28;20112;-70
2022/05/14 02:52:36;;;;;;;7.65;3.78;;;10.00;99.90;;;;;;5025219;28;20021;-70
2022/05/14 02:55:02;;;;;;;7.13;3.72;;;10.00;99.90;;;;;;5023163;28;20037;-70
2022/05/14 02:57:28;;;;;;;4.50;3.47;;;10.00;99.90;;;;;;5021916;28;20043;-69
2022/05/14 02:59:54;;;;;;;6.47;3.67;;;10.00;99.90;;;;;;5022915;28;20036;-69
2022/05/14 03:02:20;;;;;;;8.02;3.80;;;9.90;99.90;;;;;;5025500;28;20045;-69
2022/05/14 03:04:48;;;;;;;5.35;3.60;;;9.90;99.90;;;;;;5024846;28;20107;-69
2022/05/14 03:07:15;;;;;;;8.13;4.22;;;9.90;99.90;;;;;;5025670;28;20037;-69
2022/05/14 03:09:41;;;;;;;9.32;4.32;;;9.90;99.90;;;;;;5022624;28;20029;-69
2022/05/14 03:12:09;;;;;;;6.75;4.10;;;9.80;99.90;;;;;;5025591;28;20021;-69
2022/05/14 03:14:35;;;;;;;5.45;4.03;;;9.80;99.90;;;;;;5024783;28;20025;-69
2022/05/14 03:17:01;;;;;;;8.85;4.40;;;9.80;99.90;;;;;;5029319;28;20036;-69
2022/05/14 03:19:27;;;;;;;7.75;4.55;;;9.80;99.90;;;;;;5026039;28;20038;-69
2022/05/14 03:21:53;;;;;;;7.57;3.70;;;9.80;99.90;;;;;;5020888;28;20041;-69
2022/05/14 03:24:19;;;;;;;6.07;3.75;;;9.80;99.90;;;;;;5029317;28;20045;-70
2022/05/14 03:26:45;;;;;;;8.15;4.25;;;9.80;99.90;;;;;;5028728;28;20038;-70
2022/05/14 03:29:11;;;;;;;7.35;4.18;;;9.70;99.90;;;;;;5028042;28;20013;-70
2022/05/14 03:31:40;;;;;;;5.75;4.07;;;9.70;99.90;;;;;;5021685;28;20056;-69
2022/05/14 03:34:06;;;;;;;7.82;4.18;;;9.80;99.90;;;;;;5028656;28;20013;-70
2022/05/14 03:36:33;;;;;;;5.60;4.00;;;9.80;99.90;;;;;;5029441;28;20044;-70
2022/05/14 03:38:59;;;;;;;5.57;3.70;;;9.80;99.90;;;;;;5026861;28;20520;-69
2022/05/14 03:41:25;;;;;;;5.93;3.88;;;9.80;99.90;;;;;;5023907;28;20053;-69
2022/05/14 03:43:51;;;;;;;7.20;4.30;;;9.80;99.90;;;;;;5028312;28;20037;-69
2022/05/14 03:46:17;;;;;;;5.78;4.05;;;9.80;99.90;;;;;;5028647;28;20037;-69
2022/05/14 03:48:44;;;;;;;8.20;4.20;;;9.80;99.90;;;;;;5020723;28;20031;-70
2022/05/14 03:51:10;;;;;;;9.35;4.30;;;9.90;99.90;;;;;;5027295;28;20110;-70
2022/05/14 03:53:37;;;;;;;6.38;4.43;;;9.90;99.90;;;;;;5020696;28;20107;-69
2022/05/14 03:56:04;;;;;;;7.10;4.32;;;9.90;99.90;;;;;;5030383;28;20037;-69
2022/05/14 03:58:30;;;;;;;5.90;4.55;;;10.00;99.90;;;;;;5024441;28;20649;-70
2022/05/14 04:00:56;;;;;;;12.48;4.97;;;10.00;99.90;;;;;;5023599;28;20063;-69
2022/05/14 04:03:21;;;;;;;9.57;4.32;;;10.00;99.90;;;;;;5026141;28;20448;-70
2022/05/14 04:05:47;;;;;;;6.85;4.88;;;10.00;99.90;;;;;;5021657;28;20033;-70
2022/05/14 04:08:13;;;;;;;7.32;4.45;;;10.10;99.90;;;;;;5030898;28;20504;-69
2022/05/14 04:10:38;;;;;;;7.28;4.38;;;10.10;99.90;;;;;;5030394;28;20121;-70
2022/05/14 04:13:04;;;;;;;8.50;4.30;;;10.20;99.90;;;;;;5025863;28;20474;-70
2022/05/14 04:15:30;;;;;;;10.95;4.97;;;10.20;99.90;;;;;;5023752;28;20025;-69
2022/05/14 04:17:56;;;;;;;9.80;4.95;;;10.30;99.90;;;;;;5029075;28;20072;-69
2022/05/14 04:20:22;;;;;;;9.30;4.35;;;10.30;99.90;;;;;;5024660;28;20072;-69
2022/05/14 04:22:49;;;;;;;7.45;4.40;;;10.40;99.90;;;;;;5024716;28;20033;-69
2022/05/14 04:25:15;;;;;;;7.28;4.63;;;10.40;99.90;;;;;;5028110;28;20045;-70
2022/05/14 04:27:41;;;;;;;8.13;4.22;;;10.50;99.90;;;;;;5027856;28;20099;-69
2022/05/14 04:30:09;;;;;;;7.47;4.63;;;10.60;99.90;;;;;;5025280;28;20494;-70
2022/05/14 04:32:35;;;;;;;9.23;4.20;;;10.90;99.90;;;;;;5026326;28;20021;-70
2022/05/14 04:35:01;;;;;;;8.68;4.43;;;11.50;99.90;;;;;;5026050;28;20017;-69
2022/05/14 04:37:26;;;;;;;9.30;4.13;;;11.90;99.90;;;;;;5025938;28;20610;-70
2022/05/14 04:39:52;;;;;;;8.98;4.40;;;11.90;99.90;;;;;;5018833;28;20037;-69
2022/05/14 04:42:17;;;;;;;7.35;4.05;;;11.80;99.90;;;;;;5025353;28;20497;-69
2022/05/14 04:44:43;;;;;;;7.05;4.72;;;11.70;99.90;;;;;;5028108;28;20056;-70
2022/05/14 04:47:09;;;;;;;7.53;4.00;;;11.60;99.90;;;;;;5018749;28;20506;-70
2022/05/14 04:49:40;;;;;;;6.97;4.05;;;11.60;99.90;;;;;;5023690;28;20033;-70
2022/05/14 04:52:07;;;;;;;5.60;3.97;;;11.60;99.90;;;;;;5025946;28;20080;-69
2022/05/14 04:54:32;;;;;;;6.03;3.90;;;11.50;99.90;;;;;;5027984;28;20436;-70
2022/05/14 04:56:58;;;;;;;10.70;4.15;;;11.50;99.90;;;;;;5019534;28;20026;-70
2022/05/14 04:59:23;;;;;;;7.38;4.25;;;11.40;99.90;;;;;;5017552;28;20034;-70
2022/05/14 05:04:38;;;;;;;8.25;4.43;;;11.40;99.90;;;;;;5005969;28;20041;-70
2022/05/14 05:07:03;;;;;;;8.95;4.38;;;11.50;99.90;;;;;;5026246;28;20366;-70
2022/05/14 05:09:29;;;;;;;6.68;3.65;;;11.50;99.90;;;;;;5019249;28;20018;-70
2022/05/14 05:11:55;;;;;;;6.70;4.45;;;11.40;99.90;;;;;;5026185;28;20021;-70
2022/05/14 05:14:20;;;;;;;7.65;4.10;;;11.40;99.90;;;;;;5027501;28;20034;-70
2022/05/14 05:16:46;;;;;;;6.85;4.38;;;11.60;99.90;;;;;;5026363;28;20037;-70
2022/05/14 05:19:12;;;;;;;5.63;4.07;;;11.60;99.90;;;;;;5021041;28;20033;-69
2022/05/14 05:21:37;;;;;;;7.50;4.10;;;11.60;99.90;;;;;;5020308;28;20040;-69
2022/05/14 05:24:05;;;;;;;5.30;3.72;;;11.70;99.90;;;;;;5024879;28;20136;-70
2022/05/14 05:26:32;;;;;;;9.00;4.53;;;11.70;99.90;;;;;;5027796;28;20038;-70
2022/05/14 05:28:58;;;;;;;8.50;4.25;;;;;;;;;;5020679;28;20024;-70
2022/05/14 05:31:24;;;;;;;7.32;4.40;;;11.70;99.90;;;;;;5022089;28;20025;-70
2022/05/14 05:33:49;;;;;;;10.32;4.43;;;11.70;99.90;;;;;;5026661;28;20191;-69
2022/05/14 05:36:15;;;;;;;7.82;4.38;;;11.70;99.90;;;;;;5028424;28;20084;-70
2022/05/14 05:38:40;;;;;;;8.10;5.10;;;11.70;99.90;;;;;;5023352;28;20037;-70
2022/05/14 05:41:06;;;;;;;8.15;4.72;;;11.70;99.90;;;;;;5024244;28;20036;-70
2022/05/14 05:43:32;;;;;;;6.38;4.80;;;11.70;99.90;;;;;;5024921;28;20029;-70
2022/05/14 05:45:57;;;;;;;9.90;5.15;;;11.70;99.90;;;;;;5016448;28;20034;-70
2022/05/14 05:48:24;;;;;;;15.98;5.18;;;11.60;99.90;;;;;;5015814;28;20025;-70
2022/05/14 05:50:49;;;;;;;10.15;4.38;;;11.60;99.90;;;;;;5018984;28;20033;-69
2022/05/14 05:53:16;;;;;;;6.88;4.18;;;11.70;99.90;;;;;;5025744;28;20029;-70
2022/05/14 05:58:27;;;;;;;7.20;5.07;;;11.80;99.90;;;;;;5021700;28;20048;-70
2022/05/14 06:00:53;;;;;;;7.05;4.40;;;11.90;99.90;;;;;;5026387;28;20033;-70
2022/05/14 06:03:19;;;;;;;6.45;4.40;;;12.00;99.90;;;;;;5024914;28;20064;-70
2022/05/14 06:05:45;;;;;;;7.93;4.55;;;12.10;99.90;;;;;;5027678;28;20052;-70
2022/05/14 06:08:14;;;;;;;7.82;4.22;;;12.20;99.90;;;;;;5024870;28;20513;-70
2022/05/14 06:10:41;;;;;;;11.45;4.20;;;12.30;99.90;;;;;;5022389;28;20025;-71
2022/05/14 06:13:09;;;;;;;8.43;5.03;;;12.50;99.90;;;;;;5019986;28;20127;-70
2022/05/14 06:15:36;;;;;;;10.50;4.95;;;12.60;99.90;;;;;;5026039;28;20151;-70
2022/05/14 06:18:04;;;;;;;12.15;4.90;;;12.60;99.90;;;;;;5026182;28;20021;-70
2022/05/14 06:20:30;;;;;;;9.05;4.82;;;12.60;99.90;;;;;;5020455;28;20030;-71
2022/05/14 06:22:56;;;;;;;10.68;5.28;;;12.60;99.90;;;;;;5023796;28;20017;-71
2022/05/14 06:25:22;;;;;;;10.38;4.85;;;12.60;99.90;;;;;;5023842;28;20528;-70
2022/05/14 06:27:48;;;;;;;9.38;5.00;;;12.60;99.90;;;;;;5025524;28;20072;-70
2022/05/14 06:30:14;;;;;;;6.82;4.55;;;12.60;99.90;;;;;;5021576;28;20061;-71
2022/05/14 06:32:40;;;;;;;6.38;4.10;;;12.70;99.90;;;;;;5023540;28;20029;-71
2022/05/14 06:35:08;;;;;;;8.32;5.00;;;12.90;99.90;;;;;;5010322;28;20078;-71
2022/05/14 06:37:34;;;;;;;12.02;4.45;;;13.00;99.90;;;;;;5023260;28;20379;-70
2022/05/14 06:40:00;;;;;;;8.43;4.85;;;13.20;99.90;;;;;;5020616;28;20530;-70
2022/05/14 06:42:25;;;;;;;6.80;4.22;;;13.30;99.90;;;;;;5021985;28;20029;-70
2022/05/14 06:44:51;;;;;;;6.93;4.50;;;13.40;99.90;;;;;;5025366;28;20025;-70
2022/05/14 06:47:18;;;;;;;9.02;4.32;;;13.60;99.90;;;;;;5020057;28;20034;-70
2022/05/14 06:49:44;;;;;;;8.23;4.15;;;13.80;99.90;;;;;;5021178;28;20117;-70
2022/05/14 06:52:14;;;;;;;11.85;4.43;;;14.10;99.90;;;;;;5016944;28;20032;-69
2022/05/14 06:54:42;;;;;;;8.48;4.57;;;14.30;99.90;;;;;;5020414;28;20084;-70
2022/05/14 06:57:09;;;;;;;11.07;4.95;;;14.40;99.90;;;;;;5018597;28;20083;-70
2022/05/14 06:59:35;;;;;;;13.45;5.15;;;14.60;99.90;;;;;;5022693;28;20037;-70
2022/05/14 07:02:01;;;;;;;8.25;4.10;;;14.70;99.90;;;;;;5023359;28;20034;-70
2022/05/14 07:07:17;;;;;;;14.55;4.70;;;14.90;99.90;;;;;;5018784;28;20040;-70
2022/05/14 07:09:43;;;;;;;6.72;4.25;;;15.10;99.90;;;;;;5023585;28;20033;-69
2022/05/14 07:12:09;;;;;;;10.95;4.75;;;15.40;99.90;;;;;;5018632;28;20025;-70
2022/05/14 07:14:36;;;;;;;10.23;4.78;;;15.70;99.90;;;;;;5016332;28;20022;-68
2022/05/14 07:17:02;;;;;;;8.63;4.20;;;;;;;;;;5016429;28;20056;-70
2022/05/14 07:19:28;;;;;;;9.10;4.47;;;15.80;99.90;;;;;;5016179;28;20033;-70
2022/05/14 07:21:55;;;;;;;8.82;3.97;;;15.90;99.90;;;;;;5023646;28;20029;-70
2022/05/14 07:24:29;;;;;;;10.88;4.80;;;16.00;99.90;;;;;;5024939;28;20046;-70
2022/05/14 07:26:57;;;;;;;9.32;4.85;;;16.40;99.90;;;;;;5019774;28;20029;-70
2022/05/14 07:29:24;;;;;;;9.25;4.30;;;;;;;;;;5020293;28;20034;-70
2022/05/14 07:31:50;;;;;;;8.15;4.30;;;16.80;99.90;;;;;;5024485;28;20040;-70
2022/05/14 07:34:16;;;;;;;6.03;3.95;;;17.00;99.90;;;;;;5021204;28;20017;-70
2022/05/14 07:36:57;;;;;;;7.88;4.38;;;17.10;99.90;;;;;;5020882;28;20045;-70
2022/05/14 07:39:27;;;;;;;11.35;4.30;;;17.10;99.90;;;;;;5021771;28;20478;-69
2022/05/14 07:41:56;;;;;;;8.00;4.38;;;17.00;99.90;;;;;;5024163;28;20034;-70
2022/05/14 07:44:26;;;;;;;8.52;3.88;;;17.20;99.90;;;;;;5022577;28;20399;-70
2022/05/14 07:46:53;;;;;;;7.97;4.10;;;17.40;99.90;;;;;;5011070;28;20474;-70
2022/05/14 07:49:21;;;;;;;9.40;4.15;;;17.50;99.90;;;;;;5021328;28;20030;-71
2022/05/14 07:51:46;;;;;;;12.75;4.18;;;17.60;99.90;;;;;;5021780;28;20025;-70
2022/05/14 07:54:12;;;;;;;32.45;4.05;;;18.00;99.90;;;;;;5024231;28;20025;-70
2022/05/14 07:56:39;;;;;;;10.07;4.22;;;18.10;99.90;;;;;;5023134;28;20096;-71
2022/05/14 07:59:05;;;;;;;12.70;4.60;;;;;;;;;;5012524;28;20037;-71
2022/05/14 08:01:31;;;;;;;8.98;3.70;;;;;;;;;;5021385;28;20068;-71
2022/05/14 08:03:57;;;;;;;14.35;5.30;;;;;;;;;;5026341;28;20649;-71
2022/05/14 08:06:23;;;;;;;11.35;5.00;;;;;;;;;;5026529;28;20438;-71
2022/05/14 08:08:51;;;;;;;11.10;4.72;;;;;;;;;;5023882;28;20409;-70
2022/05/14 08:11:17;;;;;;;17.95;5.28;;;19.20;99.90;;;;;;5027607;28;20452;-70
2022/05/14 08:13:43;;;;;;;9.60;4.70;;;;;;;;;;5028849;28;20026;-71
2022/05/14 08:16:09;;;;;;;16.08;6.32;;;;;;;;;;5023892;28;23183;-71
2022/05/14 08:18:35;;;;;;;26.83;8.93;;;;;;;;;;5025300;28;20033;-71
2022/05/14 08:24:29;;;;;;;13.90;6.80;;;;;;;;;;5025749;28;20152;-70
2022/05/14 08:26:32;;;;;;;45.45;10.18;;;;;;;;;;5026936;28;20464;-70
2022/05/14 08:28:58;;;;;;;13.65;6.03;;;;;;;;;;5024206;28;20049;-70
2022/05/14 08:31:24;;;;;;;13.75;5.75;;;;;;;;;;5023438;28;20037;-70
2022/05/14 08:33:50;;;;;;;13.90;6.43;;;;;;;;;;5026171;28;20038;-70
2022/05/14 08:36:16;;;;;;;13.23;6.18;;;;;;;;;;5028230;28;20060;-70
2022/05/14 08:38:42;;;;;;;24.00;7.28;;;;;;;;;;5021889;28;20041;-70
2022/05/14 08:41:09;;;;;;;14.88;6.93;;;;;;;;;;5026604;28;20057;-70
2022/05/14 08:43:49;;;;;;;14.95;6.43;;;;;;;;;;5028082;28;20056;-71
2022/05/14 08:46:17;;;;;;;19.63;7.35;;;;;;;;;;5024269;28;20037;-70
2022/05/14 08:48:43;;;;;;;13.40;6.30;;;;;;;;;;5019226;28;20042;-70
2022/05/14 08:51:14;;;;;;;14.30;6.60;;;20.50;96.60;;;;;;5015710;28;20021;-70
2022/05/14 08:53:43;;;;;;;13.80;6.18;;;20.40;96.90;;;;;;5021561;28;20112;-70
2022/05/14 08:56:16;;;;;;;13.65;6.40;;;20.30;95.40;;;;;;5022193;28;20061;-70
2022/05/14 08:59:13;;;;;;;11.15;5.97;;;20.20;95.90;;;;;;5017631;28;20491;-70
2022/05/14 09:01:42;;;;;;;18.60;7.75;;;20.20;95.70;;;;;;5024343;28;20063;-70
2022/05/14 09:04:09;;;;;;;17.40;6.32;;;20.20;94.70;;;;;;5023458;28;20375;-70
2022/05/14 09:06:40;;;;;;;12.50;4.95;;;20.20;95.00;;;;;;5021034;28;20057;-71
2022/05/14 09:09:09;;;;;;;12.68;4.78;;;20.30;94.70;;;;;;5023165;28;20238;-71
2022/05/14 09:11:51;;;;;;;11.25;5.00;;;20.40;92.70;;;;;;5018046;28;20036;-70
2022/05/14 09:14:19;;;;;;;13.45;4.50;;;20.50;92.30;;;;;;5028477;28;20397;-71
2022/05/14 09:16:50;;;;;;;13.00;4.85;;;20.60;92.20;;;;;;5022784;28;20037;-70
2022/05/14 09:19:19;;;;;;;13.57;4.47;;;20.70;92.70;;;;;;5021355;28;20036;-71
2022/05/14 09:21:57;;;;;;;11.95;4.78;;;20.70;92.90;;;;;;5022231;28;20057;-70
2022/05/14 09:24:28;;;;;;;16.67;5.03;;;20.80;93.90;;;;;;5026172;28;20065;-70
2022/05/14 09:27:10;;;;;;;18.45;5.25;;;20.90;93.80;;;;;;5024757;28;20164;-70
2022/05/14 09:29:40;;;;;;;12.90;5.13;;;21.10;93.10;;;;;;5025072;28;20052;-70
2022/05/14 09:32:14;;;;;;;12.85;4.80;;;21.00;93.00;;;;;;5025468;28;20456;-70
2022/05/14 09:34:40;;;;;;;11.45;4.40;;;21.00;91.30;;;;;;5026576;28;20021;-70
2022/05/14 09:37:09;;;;;;;12.52;4.72;;;20.90;91.10;;;;;;5027590;28;20099;-70
2022/05/14 09:39:36;;;;;;;13.88;4.45;;;20.70;90.90;;;;;;5023961;28;20064;-70
2022/05/14 09:42:04;;;;;;;14.90;5.07;;;20.70;90.40;;;;;;5025160;28;20482;-70
2022/05/14 09:44:35;;;;;;;11.85;4.72;;;20.70;91.30;;;;;;5016426;28;20088;-70
2022/05/14 09:47:09;;;;;;;13.75;5.30;;;21.10;92.30;;;;;;5024176;28;20041;-70
2022/05/14 09:49:41;;;;;;;13.65;4.72;;;21.10;92.50;;;;;;5024312;28;20501;-70
2022/05/14 09:52:10;;;;;;;12.55;4.60;;;21.20;92.30;;;;;;5025825;28;20025;-70
2022/05/14 09:54:41;;;;;;;13.60;4.05;;;21.40;90.70;;;;;;5022229;28;20441;-70
2022/05/14 09:57:25;;;;;;;13.23;3.70;;;21.40;88.70;;;;;;5024909;28;20100;-70
2022/05/14 10:00:06;;;;;;;10.93;3.83;;;21.50;90.20;;;;;;5019695;28;20032;-69
2022/05/14 10:02:57;;;;;;;9.52;4.03;;;21.40;88.20;;;;;;5026390;28;20401;-68
2022/05/14 10:05:22;;;;;;;8.55;3.20;;;21.30;87.40;;;;;;5019201;28;20029;-69
2022/05/14 10:07:48;;;;;;;9.77;3.25;;;21.20;88.60;;;;;;5018482;28;20518;-68
2022/05/14 10:10:43;;;;;;;10.23;3.70;;;21.40;90.00;;;;;;5018284;28;20241;-69
2022/05/14 10:13:27;;;;;;;14.88;3.58;;;21.50;89.30;;;;;;5022958;28;20029;-69
2022/05/14 10:15:52;;;;;;;;;;;21.70;88.60;;;;;;5014008;28;20333;-68
2022/05/14 10:18:49;;;;;;;9.35;3.13;;;21.80;87.00;;;;;;5021643;28;20000;-68
2022/05/14 10:21:29;;;;;;;10.98;3.58;;;21.80;85.60;;;;;;5020047;28;20033;-69
2022/05/14 10:27:14;;;;;;;11.48;3.55;;;21.90;88.90;;;;;;5022506;28;20036;-69
2022/05/14 10:29:43;;;;;;;10.43;3.20;;;21.80;86.40;;;;;;5018416;28;20112;-68
2022/05/14 10:32:13;;;;;;;7.70;2.88;;;21.90;88.90;;;;;;5021383;28;20029;-67
2022/05/14 10:34:47;;;;;;;8.73;3.17;;;22.00;88.70;;;;;;5024271;28;20030;-67
2022/05/14 10:37:20;;;;;;;6.30;2.85;;;22.10;86.80;;;;;;5016302;28;20068;-68
2022/05/14 10:40:08;;;;;;;8.63;3.13;;;22.10;84.70;;;;;;5015230;28;20048;-67
2022/05/14 10:42:50;;;;;;;7.10;2.97;;;22.20;84.20;;;;;;5022655;28;20053;-67
2022/05/14 10:45:27;;;;;;;11.48;2.95;;;22.30;92.00;;;;;;5022045;28;20028;-67
2022/05/14 10:48:14;;;;;;;7.35;3.53;;;22.40;92.70;;;;;;5024366;28;20663;-67
2022/05/14 10:50:39;;;;;;;7.97;3.17;;;22.40;92.50;;;;;;5023670;28;20030;-67
2022/05/14 10:53:08;;;;;;;10.20;3.05;;;22.50;93.00;;;;;;5017771;28;20049;-67
2022/05/14 10:55:43;;;;;;;8.77;3.15;;;22.50;92.80;;;;;;5025450;28;20026;-67
2022/05/14 10:58:35;;;;;;;7.65;3.17;;;22.50;91.70;;;;;;5018344;28;20394;-67
2022/05/14 11:01:02;;;;;;;5.60;3.05;;;22.60;87.40;;;;;;5005184;28;20509;-70
2022/05/14 11:03:32;;;;;;;10.88;3.15;;;22.70;82.10;;;;;;5017913;28;20082;-68
2022/05/14 11:06:01;;;;;;;9.05;3.30;;;22.70;82.60;;;;;;5026485;28;20057;-68
2022/05/14 11:08:43;;;;;;;6.35;2.78;;;22.70;83.40;;;;;;5018441;28;20022;-68
2022/05/14 11:11:26;;;;;;;8.98;3.13;;;22.80;82.90;;;;;;5018031;28;20038;-67
2022/05/14 11:14:04;;;;;;;8.88;3.00;;;22.90;80.30;;;;;;5024255;28;20076;-68
2022/05/14 11:16:35;;;;;;;9.68;2.97;;;22.70;81.30;;;;;;5022789;28;20402;-68
2022/05/14 11:19:04;;;;;;;5.65;2.47;;;22.60;82.10;;;;;;5014496;28;20432;-69
2022/05/14 11:21:46;;;;;;;12.45;3.08;;;22.80;81.30;;;;;;5024668;28;20132;-69
2022/05/14 11:24:14;;;;;;;9.52;2.42;;;23.10;81.50;;;;;;5024788;28;20123;-69
2022/05/14 11:26:58;;;;;;;6.95;2.70;;;23.10;78.60;;;;;;5024512;28;20063;-69
2022/05/14 11:29:28;;;;;;;7.00;2.50;;;23.10;75.30;;;;;;5018230;28;20053;-68
2022/05/14 11:32:04;;;;;;;10.65;2.45;;;23.30;77.70;;;;;;5026382;28;20368;-69
2022/05/14 11:34:30;;;;;;;7.00;2.30;;;23.50;78.00;;;;;;5020073;28;20056;-68
2022/05/14 11:37:00;;;;;;;4.60;1.95;;;23.60;74.70;;;;;;5028460;28;20073;-68
2022/05/14 11:39:30;;;;;;;7.78;2.45;;;23.70;74.50;;;;;;5025600;28;20037;-68
2022/05/14 11:42:30;;;;;;;6.75;2.53;;;23.80;74.00;;;;;;5029472;28;20030;-69
2022/05/14 11:45:26;;;;;;;5.50;2.53;;;24.00;74.00;;;;;;5024819;28;20064;-68
2022/05/14 11:48:20;;;;;;;6.55;2.30;;;24.10;70.70;;;;;;5010243;28;20080;-68
2022/05/14 11:50:56;;;;;;;7.05;2.00;;;24.10;71.40;;;;;;4674996;28;10000376;-69
2022/05/14 11:53:32;;;;;;;6.55;2.22;;;24.30;71.70;;;;;;5022850;28;20112;-69
2022/05/14 11:56:07;;;;;;;7.55;2.20;;;24.40;69.40;;;;;;5023700;28;20603;-68
2022/05/14 11:58:54;;;;;;;10.07;2.72;;;24.40;69.30;;;;;;5022517;28;20396;-68
2022/05/14 12:01:26;;;;;;;5.85;2.20;;;24.40;70.90;;;;;;5022421;28;20060;-68
2022/05/14 12:03:53;;;;;;;6.32;1.80;;;24.30;69.60;;;;;;5021388;28;20034;-68
2022/05/14 12:07:12;;;;;;;7.25;2.00;;;24.10;68.60;;;;;;5025199;28;20040;-68
2022/05/14 12:09:44;;;;;;;5.88;2.17;;;24.10;70.20;;;;;;5004023;28;20045;-68
2022/05/14 12:12:31;;;;;;;7.30;2.10;;;24.20;67.20;;;;;;5021816;28;20021;-68
2022/05/14 12:15:09;;;;;;;8.82;2.20;;;24.40;67.20;;;;;;5015462;28;20140;-69
2022/05/14 12:17:35;;;;;;;7.70;2.00;;;24.40;69.90;;;;;;5015173;28;20030;-68
2022/05/14 12:20:02;;;;;;;14.70;2.45;;;24.00;68.40;;;;;;5021585;28;20404;-68
2022/05/14 12:22:30;;;;;;;5.45;1.95;;;23.40;70.80;;;;;;5021228;28;20038;-68
2022/05/14 12:24:59;;;;;;;5.88;2.00;;;23.10;74.80;;;;;;5014664;28;20092;-68
2022/05/14 12:27:26;;;;;;;8.00;2.05;;;23.00;69.00;;;;;;5024298;28;20037;-68
2022/05/14 12:33:23;;;;;;;9.13;2.08;;;23.30;69.00;;;;;;4963513;28;20042;-69
2022/05/14 12:35:55;;;;;;;5.10;1.65;;;23.40;65.10;;;;;;5012357;28;20073;-69
2022/05/14 12:38:30;;;;;;;7.97;2.20;;;23.50;66.30;;;;;;5013850;28;20822;-69
2022/05/14 12:40:56;;;;;;;9.90;2.25;;;23.50;67.10;;;;;;5023523;28;20556;-69
2022/05/14 12:43:22;;;;;;;7.07;2.03;;;23.40;66.20;;;;;;5025913;28;20090;-69
2022/05/14 12:46:06;;;;;;;6.32;2.17;;;23.30;65.50;;;;;;5023706;28;20674;-68
2022/05/14 12:48:40;;;;;;;4.30;1.58;;;23.50;65.70;;;;;;5015811;28;20044;-68
2022/05/14 12:51:08;;;;;;;8.88;2.10;;;23.80;64.40;;;;;;5024265;28;20099;-69
2022/05/14 12:53:41;;;;;;;5.47;1.73;;;24.00;66.70;;;;;;5025494;28;20025;-69
2022/05/14 12:56:07;;;;;;;3.80;1.58;;;24.10;63.30;;;;;;5024352;28;20454;-68
2022/05/14 12:58:35;;;;;;;6.70;2.10;;;24.40;65.60;;;;;;5022130;28;20036;-68
2022/05/14 13:01:04;;;;;;;10.30;2.13;;;24.50;64.50;;;;;;5022818;28;20056;-68
2022/05/14 13:03:59;;;;;;;9.40;2.22;;;24.60;60.10;;;;;;5025952;28;20033;-69
2022/05/14 13:06:34;;;;;;;6.60;2.00;;;24.50;63.10;;;;;;5020682;28;20611;-68
2022/05/14 13:09:05;;;;;;;7.57;2.05;;;24.50;61.80;;;;;;5018318;28;20068;-69
2022/05/14 13:11:34;;;;;;;5.53;1.58;;;24.40;63.70;;;;;;5022181;28;20756;-68
2022/05/14 13:14:29;;;;;;;7.72;1.80;;;24.60;61.90;;;;;;5020915;28;20064;-68
2022/05/14 13:16:58;;;;;;;6.65;1.85;;;24.80;61.20;;;;;;5021411;28;20727;-68
2022/05/14 13:19:37;;;;;;;9.57;2.15;;;24.60;62.60;;;;;;5018066;28;20523;-69
2022/05/14 13:22:07;;;;;;;11.07;2.15;;;24.40;65.60;;;;;;5010592;28;20068;-69
2022/05/14 13:24:35;;;;;;;4.90;2.00;;;24.40;65.20;;;;;;5024350;28;20049;-69
2022/05/14 13:27:11;;;;;;;6.63;1.92;;;24.10;64.40;;;;;;5014964;28;20485;-69
2022/05/14 13:29:41;;;;;;;9.82;2.30;;;23.90;63.10;;;;;;5021019;28;20029;-69